createdAt,value
2019-04-22T00:01:31.174Z,10.90
2019-04-22T00:04:06.807Z,11.00
2019-04-22T00:06:56.309Z,11.10
2019-04-22T00:09:30.905Z,11.20
2019-04-22T00:12:06.093Z,11.30
2019-04-22T00:14:30.907Z,11.30
2019-04-22T00:17:16.681Z,11.40
2019-04-22T00:19:43.698Z,11.40
2019-04-22T00:22:26.135Z,11.50
2019-04-22T00:24:47.834Z,11.50
2019-04-22T00:32:27.221Z,11.50
2019-04-22T00:35:02.349Z,11.50
2019-04-22T00:37:43.807Z,11.50
2019-04-22T00:40:17.738Z,11.40
2019-04-22T00:42:47.676Z,11.40
2019-04-22T00:45:19.130Z,11.40
2019-04-22T00:47:55.843Z,11.40
2019-04-22T00:50:30.107Z,11.30
2019-04-22T00:53:04.377Z,11.30
2019-04-22T00:55:32.609Z,11.30
2019-04-22T00:58:12.330Z,11.20
2019-04-22T01:00:40.151Z,11.20
2019-04-22T01:03:22.837Z,11.10
2019-04-22T01:05:51.067Z,11.10
2019-04-22T01:08:34.850Z,10.30
2019-04-22T01:10:57.048Z,11.10
2019-04-22T01:13:24.789Z,11.00
2019-04-22T01:15:57.862Z,11.00
2019-04-22T01:18:29.646Z,11.00
2019-04-22T01:23:30.021Z,10.90
2019-04-22T01:26:00.771Z,10.90
2019-04-22T01:28:30.138Z,10.90
2019-04-22T01:31:03.877Z,10.80
2019-04-22T01:33:35.283Z,10.80
2019-04-22T01:36:19.715Z,10.70
2019-04-22T01:38:58.251Z,10.70
2019-04-22T01:41:38.888Z,10.70
2019-04-22T01:44:05.780Z,10.70
2019-04-22T01:46:42.677Z,10.60
2019-04-22T01:49:08.216Z,10.60
2019-04-22T01:51:45.220Z,10.50
2019-04-22T01:54:12.317Z,10.50
2019-04-22T01:56:41.043Z,10.50
2019-04-22T01:59:05.130Z,10.50
2019-04-22T02:01:53.034Z,10.40
2019-04-22T02:04:28.521Z,10.40
2019-04-22T02:06:48.465Z,10.30
2019-04-22T02:14:29.067Z,10.10
2019-04-22T02:17:01.365Z,10.10
2019-04-22T02:20:32.900Z,10.00
2019-04-22T02:22:04.153Z,10.00
2019-04-22T02:24:39.857Z,10.00
2019-04-22T02:27:10.741Z,10.00
2019-04-22T02:29:44.575Z,9.90
2019-04-22T02:32:28.063Z,9.90
2019-04-22T02:35:03.739Z,9.90
2019-04-22T02:37:21.076Z,9.90
2019-04-22T02:39:57.918Z,9.80
2019-04-22T02:42:19.503Z,9.80
2019-04-22T02:44:53.230Z,9.80
2019-04-22T02:47:29.287Z,9.80
2019-04-22T02:50:02.447Z,9.80
2019-04-22T02:57:39.757Z,9.50
2019-04-22T03:00:18.440Z,9.40
2019-04-22T03:02:50.644Z,9.40
2019-04-22T03:05:19.483Z,9.30
2019-04-22T03:07:55.988Z,9.30
2019-04-22T03:10:18.870Z,9.20
2019-04-22T03:12:41.619Z,9.20
2019-04-22T03:15:14.510Z,9.10
2019-04-22T03:17:58.407Z,9.10
2019-04-22T03:20:42.090Z,9.00
2019-04-22T03:23:06.147Z,8.90
2019-04-22T03:27:56.385Z,8.80
2019-04-22T03:30:53.585Z,8.80
2019-04-22T03:40:46.407Z,8.60
2019-04-22T03:43:15.717Z,8.50
2019-04-22T03:45:40.069Z,8.50
2019-04-22T03:48:22.297Z,8.40
2019-04-22T03:50:42.903Z,8.40
2019-04-22T03:53:21.179Z,8.30
2019-04-22T03:55:59.785Z,8.30
2019-04-22T03:58:21.078Z,8.20
2019-04-22T04:01:06.790Z,8.20
2019-04-22T04:03:28.361Z,8.10
2019-04-22T04:06:06.677Z,8.10
2019-04-22T04:08:33.796Z,8.10
2019-04-22T04:10:57.857Z,8.00
2019-04-22T04:13:57.945Z,8.00
2019-04-22T04:16:23.166Z,8.00
2019-04-22T04:19:03.693Z,8.00
2019-04-22T04:24:29.586Z,7.90
2019-04-22T04:29:27.883Z,7.80
2019-04-22T04:34:39.883Z,7.80
2019-04-22T04:36:57.839Z,7.80
2019-04-22T04:39:28.740Z,7.80
2019-04-22T04:44:37.043Z,7.80
2019-04-22T04:47:04.987Z,7.80
2019-04-22T04:49:34.699Z,7.70
2019-04-22T04:57:07.241Z,7.80
2019-04-22T04:59:53.211Z,7.80
2019-04-22T05:02:12.276Z,7.80
2019-04-22T05:07:18.743Z,7.80
2019-04-22T05:09:49.859Z,7.80
2019-04-22T05:12:27.515Z,7.80
2019-04-22T05:14:48.872Z,7.90
2019-04-22T05:20:33.116Z,7.90
2019-04-22T05:22:39.681Z,8.00
2019-04-22T05:27:45.377Z,8.00
2019-04-22T05:32:47.355Z,8.20
2019-04-22T05:35:23.044Z,8.20
2019-04-22T05:37:56.496Z,8.30
2019-04-22T05:40:24.360Z,8.40
2019-04-22T05:42:56.307Z,8.40
2019-04-22T05:45:24.975Z,8.40
2019-04-22T05:47:57.607Z,8.50
2019-04-22T05:50:26.985Z,8.50
2019-04-22T05:53:20.040Z,8.50
2019-04-22T05:55:43.601Z,8.60
2019-04-22T05:58:31.201Z,8.60
2019-04-22T06:01:13.162Z,8.60
2019-04-22T06:03:16.854Z,8.70
2019-04-22T06:05:47.901Z,8.80
2019-04-22T06:08:24.178Z,8.80
2019-04-22T06:11:06.049Z,8.90
2019-04-22T06:13:23.596Z,9.00
2019-04-22T06:15:57.159Z,9.10
2019-04-22T06:18:33.504Z,9.20
2019-04-22T06:21:14.742Z,9.20
2019-04-22T06:23:42.443Z,9.30
2019-04-22T06:31:28.167Z,9.60
2019-04-22T06:36:53.938Z,9.60
2019-04-22T06:41:56.541Z,9.60
2019-04-22T06:47:02.092Z,9.70
2019-04-22T06:52:12.857Z,9.80
2019-04-22T06:54:32.585Z,9.90
2019-04-22T06:57:06.249Z,10.00
2019-04-22T06:59:36.567Z,10.00
2019-04-22T07:02:18.078Z,10.10
2019-04-22T07:04:41.953Z,10.10
2019-04-22T07:07:12.359Z,10.20
2019-04-22T07:09:48.650Z,10.30
2019-04-22T07:14:59.617Z,10.50
2019-04-22T07:17:23.228Z,10.60
2019-04-22T07:19:52.804Z,10.70
2019-04-22T07:22:29.293Z,10.70
2019-04-22T07:24:58.889Z,10.80
2019-04-22T07:27:27.502Z,10.90
2019-04-22T07:30:09.212Z,11.00
2019-04-22T07:32:59.176Z,11.20
2019-04-22T07:35:08.595Z,11.40
2019-04-22T07:40:09.930Z,11.60
2019-04-22T07:43:04.334Z,11.70
2019-04-22T07:45:20.247Z,11.70
2019-04-22T07:47:52.442Z,11.80
2019-04-22T07:50:37.749Z,11.80
2019-04-22T07:52:51.375Z,11.80
2019-04-22T07:55:43.401Z,11.80
2019-04-22T07:58:11.802Z,11.80
2019-04-22T08:01:03.544Z,11.70
2019-04-22T08:03:24.537Z,11.60
2019-04-22T08:05:58.656Z,11.60
2019-04-22T08:08:26.491Z,11.60
2019-04-22T08:10:59.418Z,11.70
2019-04-22T08:13:25.338Z,11.70
2019-04-22T08:15:58.804Z,11.80
2019-04-22T08:21:10.091Z,12.00
2019-04-22T08:23:46.399Z,12.10
2019-04-22T08:26:16.399Z,12.10
2019-04-22T08:31:27.054Z,12.10
2019-04-22T08:34:12.085Z,12.00
2019-04-22T08:36:26.303Z,12.10
2019-04-22T08:39:03.844Z,12.10
2019-04-22T08:41:37.480Z,12.00
2019-04-22T08:44:07.646Z,12.00
2019-04-22T08:47:04.342Z,12.00
2019-04-22T08:49:10.249Z,12.00
2019-04-22T08:51:49.418Z,12.10
2019-04-22T08:54:26.076Z,12.20
2019-04-22T08:56:59.846Z,12.20
2019-04-22T08:59:46.247Z,12.20
2019-04-22T09:02:09.922Z,12.20
2019-04-22T09:04:30.628Z,12.20
2019-04-22T09:09:42.350Z,12.20
2019-04-22T09:12:15.813Z,12.20
2019-04-22T09:14:41.711Z,12.30
2019-04-22T09:17:14.703Z,12.40
2019-04-22T09:19:47.441Z,12.50
2019-04-22T09:22:17.324Z,12.70
2019-04-22T09:24:46.849Z,12.80
2019-04-22T09:27:25.159Z,13.00
2019-04-22T09:29:51.926Z,13.00
2019-04-22T09:32:30.632Z,12.90
2019-04-22T09:34:57.196Z,12.80
2019-04-22T09:37:34.431Z,12.50
2019-04-22T09:40:08.742Z,12.40
2019-04-22T09:42:39.118Z,12.30
2019-04-22T09:45:06.087Z,12.30
2019-04-22T09:47:49.092Z,12.30
2019-04-22T09:50:12.124Z,12.30
2019-04-22T09:52:51.435Z,12.30
2019-04-22T09:57:46.303Z,12.70
2019-04-22T10:02:55.359Z,13.00
2019-04-22T10:05:29.315Z,13.00
2019-04-22T10:07:59.585Z,13.00
2019-04-22T10:10:29.968Z,13.10
2019-04-22T10:12:57.472Z,13.10
2019-04-22T10:15:33.382Z,13.20
2019-04-22T10:18:04.821Z,13.30
2019-04-22T10:20:42.246Z,13.40
2019-04-22T10:23:12.841Z,13.40
2019-04-22T10:25:45.895Z,13.40
2019-04-22T10:28:14.770Z,13.50
2019-04-22T10:30:48.840Z,13.60
2019-04-22T10:33:12.167Z,13.70
2019-04-22T10:35:26.757Z,13.80
2019-04-22T10:38:02.226Z,13.80
2019-04-22T10:40:34.588Z,13.70
2019-04-22T10:43:07.330Z,13.50
2019-04-22T10:45:38.143Z,13.50
2019-04-22T10:48:10.601Z,13.50
2019-04-22T10:50:43.382Z,13.60
2019-04-22T10:53:15.474Z,13.60
2019-04-22T10:55:47.704Z,13.80
2019-04-22T10:58:18.643Z,13.90
2019-04-22T11:00:50.193Z,14.00
2019-04-22T11:03:22.305Z,14.10
2019-04-22T11:05:54.185Z,14.10
2019-04-22T11:08:37.979Z,14.00
2019-04-22T11:11:14.101Z,14.00
2019-04-22T11:13:42.060Z,13.90
2019-04-22T11:16:17.399Z,13.90
2019-04-22T11:18:47.927Z,13.50
2019-04-22T11:21:18.289Z,14.10
2019-04-22T11:23:50.242Z,14.10
2019-04-22T11:26:23.948Z,14.10
2019-04-22T11:28:55.986Z,14.00
2019-04-22T11:31:28.248Z,14.00
2019-04-22T11:33:58.626Z,13.90
2019-04-22T11:36:30.685Z,13.90
2019-04-22T11:39:03.927Z,13.80
2019-04-22T11:41:35.989Z,13.80
2019-04-22T11:44:07.571Z,13.80
2019-04-22T11:46:39.153Z,13.80
2019-04-22T11:49:12.131Z,13.90
2019-04-22T11:51:43.553Z,13.90
2019-04-22T11:54:14.727Z,13.80
2019-04-22T11:56:45.300Z,13.80
2019-04-22T11:59:16.039Z,13.90
2019-04-22T12:01:46.799Z,13.90
2019-04-22T12:04:18.011Z,14.10
2019-04-22T12:06:49.829Z,14.20
2019-04-22T12:09:27.884Z,14.40
2019-04-22T12:11:58.303Z,14.60
2019-04-22T12:14:30.006Z,14.50
2019-04-22T12:17:01.495Z,14.50
2019-04-22T12:19:33.695Z,14.50
2019-04-22T12:22:04.886Z,14.40
2019-04-22T12:24:36.357Z,14.30
2019-04-22T12:27:11.592Z,14.30
2019-04-22T12:29:42.987Z,14.20
2019-04-22T12:32:13.577Z,14.20
2019-04-22T12:34:43.967Z,14.20
2019-04-22T12:37:22.296Z,14.20
2019-04-22T12:39:47.451Z,14.10
2019-04-22T12:42:19.499Z,14.20
2019-04-22T12:44:51.190Z,14.30
2019-04-22T12:47:22.233Z,14.40
2019-04-22T12:49:57.192Z,14.50
2019-04-22T12:52:34.233Z,14.70
2019-04-22T12:54:57.333Z,14.80
2019-04-22T12:57:28.276Z,15.00
2019-04-22T12:59:59.596Z,15.10
2019-04-22T13:02:31.284Z,15.20
2019-04-22T13:05:03.804Z,15.30
2019-04-22T13:07:35.642Z,15.40
2019-04-22T13:10:10.131Z,15.60
2019-04-22T13:12:40.745Z,15.70
2019-04-22T13:15:18.219Z,15.80
2019-04-22T13:18:03.189Z,15.80
2019-04-22T13:20:24.315Z,15.90
2019-04-22T13:22:54.784Z,15.90
2019-04-22T13:25:28.299Z,16.00
2019-04-22T13:27:57.505Z,16.00
2019-04-22T13:30:30.371Z,16.10
2019-04-22T13:33:02.843Z,16.20
2019-04-22T13:35:33.891Z,16.20
2019-04-22T13:38:04.955Z,16.30
2019-04-22T13:40:35.292Z,16.30
2019-04-22T13:43:07.100Z,16.30
2019-04-22T13:45:38.563Z,16.40
2019-04-22T13:48:29.731Z,16.50
2019-04-22T13:51:13.192Z,16.60
2019-04-22T13:54:24.326Z,16.70
2019-04-22T13:56:15.484Z,16.80
2019-04-22T13:58:35.418Z,16.90
2019-04-22T14:00:54.676Z,17.00
2019-04-22T14:03:42.832Z,17.10
2019-04-22T14:06:13.315Z,17.20
2019-04-22T14:08:45.088Z,17.20
2019-04-22T14:11:25.914Z,17.30
2019-04-22T14:13:47.978Z,17.30
2019-04-22T14:16:19.900Z,17.40
2019-04-22T14:18:51.967Z,17.50
2019-04-22T14:21:24.933Z,17.60
2019-04-22T14:23:56.467Z,17.70
2019-04-22T14:26:28.385Z,17.80
2019-04-22T14:28:59.990Z,17.90
2019-04-22T14:31:33.551Z,18.00
2019-04-22T14:34:08.147Z,18.00
2019-04-22T14:36:39.292Z,18.10
2019-04-22T14:39:10.359Z,18.20
2019-04-22T14:41:57.379Z,18.20
2019-04-22T14:49:42.143Z,18.40
2019-04-22T14:52:11.718Z,18.40
2019-04-22T14:54:34.793Z,18.50
2019-04-22T14:56:52.391Z,18.60
2019-04-22T14:59:22.974Z,18.70
2019-04-22T15:01:54.114Z,18.80
2019-04-22T15:04:24.572Z,18.90
2019-04-22T15:06:54.861Z,19.10
2019-04-22T15:09:26.073Z,19.10
2019-04-22T15:12:08.736Z,19.10
2019-04-22T15:14:29.777Z,19.10
2019-04-22T15:17:18.731Z,18.90
2019-04-22T15:19:58.068Z,18.80
2019-04-22T15:22:30.681Z,18.80
2019-04-22T15:25:00.931Z,18.70
2019-04-22T15:27:33.067Z,18.70
2019-04-22T15:30:05.749Z,18.60
2019-04-22T15:32:36.548Z,18.50
2019-04-22T15:35:09.048Z,18.50
2019-04-22T15:37:39.525Z,18.50
2019-04-22T15:40:11.260Z,18.50
2019-04-22T15:42:43.374Z,18.50
2019-04-22T15:45:16.473Z,18.40
2019-04-22T15:47:48.180Z,18.40
2019-04-22T15:50:19.019Z,18.30
2019-04-22T15:52:51.958Z,18.30
2019-04-22T15:55:22.469Z,18.30
2019-04-22T15:57:53.993Z,18.30
2019-04-22T16:00:36.815Z,18.50
2019-04-22T16:02:57.587Z,18.60
2019-04-22T16:05:30.344Z,18.80
2019-04-22T16:08:01.307Z,19.00
2019-04-22T16:10:33.778Z,19.10
2019-04-22T16:13:11.291Z,19.30
2019-04-22T16:15:44.572Z,19.60
2019-04-22T16:18:15.372Z,19.90
2019-04-22T16:20:46.186Z,20.10
2019-04-22T16:23:21.823Z,20.40
2019-04-22T16:26:05.244Z,20.70
2019-04-22T16:28:35.650Z,20.90
2019-04-22T16:31:07.227Z,21.00
2019-04-22T16:33:40.300Z,21.10
2019-04-22T16:36:10.949Z,21.10
2019-04-22T16:38:42.805Z,21.00
2019-04-22T16:41:14.642Z,21.00
2019-04-22T16:43:46.773Z,20.90
2019-04-22T16:46:17.193Z,20.70
2019-04-22T16:48:47.691Z,20.40
2019-04-22T16:51:25.455Z,20.10
2019-04-22T16:54:04.139Z,19.80
2019-04-22T16:56:39.713Z,19.40
2019-04-22T16:59:12.738Z,19.20
2019-04-22T17:01:46.363Z,18.90
2019-04-22T17:04:18.915Z,18.70
2019-04-22T17:06:50.455Z,18.50
2019-04-22T17:09:21.633Z,18.50
2019-04-22T17:11:52.293Z,18.70
2019-04-22T17:14:30.495Z,19.20
2019-04-22T17:16:54.806Z,20.00
2019-04-22T17:19:27.006Z,20.80
2019-04-22T17:21:57.667Z,21.30
2019-04-22T17:24:29.881Z,21.90
2019-04-22T17:27:00.338Z,22.10
2019-04-22T17:29:30.726Z,22.20
2019-04-22T17:32:06.419Z,22.10
2019-04-22T17:34:33.721Z,22.00
2019-04-22T17:37:15.502Z,21.90
2019-04-22T17:39:53.131Z,21.80
2019-04-22T17:42:29.371Z,21.40
2019-04-22T17:45:27.075Z,20.90
2019-04-22T17:48:15.542Z,20.50
2019-04-22T17:50:53.856Z,20.00
2019-04-22T17:53:37.864Z,19.60
2019-04-22T17:56:02.169Z,19.10
2019-04-22T17:58:34.742Z,18.70
2019-04-22T18:01:02.486Z,18.30
2019-04-22T18:03:31.089Z,18.10
2019-04-22T18:06:00.382Z,17.70
2019-04-22T18:08:48.601Z,17.50
2019-04-22T18:11:24.383Z,17.30
2019-04-22T18:13:55.268Z,17.10
2019-04-22T18:16:37.470Z,16.90
2019-04-22T18:19:10.078Z,16.80
2019-04-22T18:21:42.307Z,16.60
2019-04-22T18:24:07.923Z,16.50
2019-04-22T18:27:01.925Z,16.40
2019-04-22T18:29:28.403Z,16.20
2019-04-22T18:31:51.214Z,16.20
2019-04-22T18:34:25.648Z,16.00
2019-04-22T18:36:59.069Z,15.90
2019-04-22T18:39:42.507Z,15.90
2019-04-22T18:42:09.292Z,15.80
2019-04-22T18:44:46.137Z,15.70
2019-04-22T18:47:14.573Z,15.60
2019-04-22T18:49:46.137Z,15.60
2019-04-22T18:52:48.039Z,15.60
2019-04-22T18:55:26.523Z,15.50
2019-04-22T18:58:00.853Z,15.40
2019-04-22T19:00:23.438Z,15.40
2019-04-22T19:03:00.879Z,15.30
2019-04-22T19:05:47.639Z,15.20
2019-04-22T19:08:23.082Z,15.20
2019-04-22T19:10:59.200Z,15.10
2019-04-22T19:16:13.006Z,15.00
2019-04-22T19:18:38.061Z,15.00
2019-04-22T19:21:07.824Z,14.90
2019-04-22T19:23:31.914Z,14.90
2019-04-22T19:26:11.921Z,14.80
2019-04-22T19:33:56.364Z,14.70
2019-04-22T19:36:22.726Z,14.60
2019-04-22T19:38:52.889Z,14.60
2019-04-22T19:41:34.670Z,14.60
2019-04-22T19:44:05.409Z,14.50
2019-04-22T19:46:26.578Z,14.50
2019-04-22T19:49:10.334Z,14.50
2019-04-22T19:51:45.822Z,14.40
2019-04-22T19:54:12.558Z,14.40
2019-04-22T19:56:33.729Z,14.40
2019-04-22T19:59:08.803Z,14.30
2019-04-22T20:01:47.495Z,14.30
2019-04-22T20:04:28.201Z,14.30
2019-04-22T20:06:53.905Z,14.20
2019-04-22T20:09:33.396Z,14.20
2019-04-22T20:12:00.909Z,14.20
2019-04-22T20:14:34.883Z,14.20
2019-04-22T20:16:59.803Z,14.20
2019-04-22T20:22:09.617Z,14.10
2019-04-22T20:24:27.687Z,14.10
2019-04-22T20:27:13.735Z,14.10
2019-04-22T20:29:49.460Z,14.00
2019-04-22T20:32:18.845Z,14.00
2019-04-22T20:34:55.227Z,14.00
2019-04-22T20:37:34.315Z,14.00
2019-04-22T20:39:53.013Z,14.00
2019-04-22T20:42:38.301Z,13.90
2019-04-22T20:44:57.090Z,13.90
2019-04-22T20:47:22.023Z,13.90
2019-04-22T20:50:02.267Z,13.90
2019-04-22T20:52:45.071Z,13.80
2019-04-22T20:55:02.534Z,13.80
2019-04-22T20:57:40.308Z,13.80
2019-04-22T21:00:06.221Z,13.80
2019-04-22T21:02:32.429Z,13.80
2019-04-22T21:05:02.274Z,13.80
2019-04-22T21:07:41.329Z,13.70
2019-04-22T21:10:12.959Z,13.70
2019-04-22T21:12:39.979Z,13.70
2019-04-22T21:15:26.400Z,13.60
2019-04-22T21:17:55.289Z,13.60
2019-04-22T21:20:43.097Z,13.50
2019-04-22T21:23:02.759Z,13.50
2019-04-22T21:25:26.344Z,13.50
2019-04-22T21:28:09.711Z,13.40
2019-04-22T21:30:40.356Z,13.40
2019-04-22T21:33:13.512Z,13.40
2019-04-22T21:36:06.756Z,13.30
2019-04-22T21:38:21.313Z,13.30
2019-04-22T21:40:47.387Z,13.30
2019-04-22T21:43:24.456Z,13.20
2019-04-22T21:45:57.461Z,13.20
2019-04-22T21:51:04.496Z,13.10
2019-04-22T21:53:38.044Z,13.10
2019-04-22T21:56:27.273Z,13.00
2019-04-22T21:58:38.240Z,13.00
2019-04-22T22:01:18.892Z,13.00
2019-04-22T22:03:47.757Z,12.90
2019-04-22T22:06:09.210Z,12.90
2019-04-22T22:08:55.102Z,12.90
2019-04-22T22:11:18.788Z,12.80
2019-04-22T22:13:50.252Z,12.80
2019-04-22T22:16:18.921Z,12.80
2019-04-22T22:19:05.465Z,12.70
2019-04-22T22:24:06.138Z,12.70
2019-04-22T22:26:35.206Z,12.60
2019-04-22T22:29:11.881Z,12.60
2019-04-22T22:31:40.081Z,12.50
2019-04-22T22:34:13.619Z,12.50
2019-04-22T22:36:37.466Z,12.40
2019-04-22T22:39:13.253Z,12.40
2019-04-22T22:41:25.998Z,12.30
2019-04-22T22:44:04.781Z,12.30
2019-04-22T22:46:37.330Z,12.20
2019-04-22T22:49:23.693Z,12.20
2019-04-22T22:52:11.859Z,12.10
2019-04-22T22:54:30.068Z,12.10
2019-04-22T22:56:59.678Z,12.10
2019-04-22T22:59:33.180Z,12.00
2019-04-22T23:02:04.614Z,12.00
2019-04-22T23:07:11.521Z,11.90
2019-04-22T23:09:36.601Z,11.80
2019-04-22T23:14:42.834Z,11.80
2019-04-22T23:16:59.725Z,11.70
2019-04-22T23:19:26.094Z,11.70
2019-04-22T23:22:01.123Z,11.70
2019-04-22T23:24:54.321Z,11.60
2019-04-22T23:27:28.865Z,11.60
2019-04-22T23:29:57.546Z,11.60
2019-04-22T23:32:32.563Z,11.50
2019-04-22T23:35:13.282Z,11.50
2019-04-22T23:37:47.693Z,11.50
2019-04-22T23:40:24.283Z,11.40
2019-04-22T23:42:53.639Z,11.40
2019-04-22T23:45:27.417Z,11.40
2019-04-22T23:47:46.424Z,11.30
2019-04-22T23:50:27.891Z,11.30
2019-04-22T23:53:00.678Z,11.30
2019-04-22T23:55:41.385Z,11.20
2019-04-22T23:58:09.562Z,11.20
